sensor_id;sensor_type;location;lat;lon;timestamp;temperature;humidity
41644;DHT22;44236;48.098;11.582;2023-07-08T05:32:48;21.60;50.30
41644;DHT22;44236;48.098;11.582;2023-07-08T05:35:14;21.70;50.10
41644;DHT22;44236;48.098;11.582;2023-07-08T05:37:40;21.70;49.90
41644;DHT22;44236;48.098;11.582;2023-07-08T05:40:09;21.70;49.90
41644;DHT22;44236;48.098;11.582;2023-07-08T05:42:35;21.80;50.10
41644;DHT22;44236;48.098;11.582;2023-07-08T05:45:01;21.80;49.80
41644;DHT22;44236;48.098;11.582;2023-07-08T05:47:27;21.90;50.10
41644;DHT22;44236;48.098;11.582;2023-07-08T05:49:53;21.90;50.40
41644;DHT22;44236;48.098;11.582;2023-07-08T05:52:18;21.90;50.20
41644;DHT22;44236;48.098;11.582;2023-07-08T05:54:44;22.00;50.20
41644;DHT22;44236;48.098;11.582;2023-07-08T05:57:10;22.00;50.10
41644;DHT22;44236;48.098;11.582;2023-07-08T05:59:37;22.00;50.00
41644;DHT22;44236;48.098;11.582;2023-07-08T06:02:05;22.00;49.70
41644;DHT22;44236;48.098;11.582;2023-07-08T06:04:31;22.00;50.10
41644;DHT22;44236;48.098;11.582;2023-07-08T06:06:57;22.00;49.70
41644;DHT22;44236;48.098;11.582;2023-07-08T06:09:23;22.00;49.70
41644;DHT22;44236;48.098;11.582;2023-07-08T06:11:48;22.00;49.50
41644;DHT22;44236;48.098;11.582;2023-07-08T06:14:14;22.10;49.40
41644;DHT22;44236;48.098;11.582;2023-07-08T06:16:39;22.10;49.40
41644;DHT22;44236;48.098;11.582;2023-07-08T06:19:05;22.10;49.00
41644;DHT22;44236;48.098;11.582;2023-07-08T06:21:31;22.10;49.00
41644;DHT22;44236;48.098;11.582;2023-07-08T06:23:57;22.20;49.30
41644;DHT22;44236;48.098;11.582;2023-07-08T06:26:22;22.20;49.20
41644;DHT22;44236;48.098;11.582;2023-07-08T06:28:49;22.20;49.00
41644;DHT22;44236;48.098;11.582;2023-07-08T06:31:14;22.20;48.90
41644;DHT22;44236;48.098;11.582;2023-07-08T06:33:40;22.20;48.90
41644;DHT22;44236;48.098;11.582;2023-07-08T06:36:06;22.20;49.30
41644;DHT22;44236;48.098;11.582;2023-07-08T06:38:33;22.30;49.10
41644;DHT22;44236;48.098;11.582;2023-07-08T06:40:58;22.30;49.60
41644;DHT22;44236;48.098;11.582;2023-07-08T06:43:24;22.30;49.60
41644;DHT22;44236;48.098;11.582;2023-07-08T06:45:50;22.30;49.90
41644;DHT22;44236;48.098;11.582;2023-07-08T06:48:15;22.30;50.20
41644;DHT22;44236;48.098;11.582;2023-07-08T06:50:47;22.30;50.50
41644;DHT22;44236;48.098;11.582;2023-07-08T06:53:14;22.30;50.00
41644;DHT22;44236;48.098;11.582;2023-07-08T06:55:40;22.40;50.80
41644;DHT22;44236;48.098;11.582;2023-07-08T06:58:05;22.40;51.40
41644;DHT22;44236;48.098;11.582;2023-07-08T07:00:31;22.40;50.40
41644;DHT22;44236;48.098;11.582;2023-07-08T07:02:57;22.40;50.80
41644;DHT22;44236;48.098;11.582;2023-07-08T07:05:22;22.40;52.10
41644;DHT22;44236;48.098;11.582;2023-07-08T07:07:48;22.40;51.30
41644;DHT22;44236;48.098;11.582;2023-07-08T07:10:13;22.40;51.90
41644;DHT22;44236;48.098;11.582;2023-07-08T07:12:39;22.40;52.00
41644;DHT22;44236;48.098;11.582;2023-07-08T07:15:05;22.40;51.90
41644;DHT22;44236;48.098;11.582;2023-07-08T07:17:31;22.40;51.70
41644;DHT22;44236;48.098;11.582;2023-07-08T07:19:56;22.40;51.70
41644;DHT22;44236;48.098;11.582;2023-07-08T07:22:22;22.40;52.00
41644;DHT22;44236;48.098;11.582;2023-07-08T07:24:48;22.40;51.20
41644;DHT22;44236;48.098;11.582;2023-07-08T07:27:14;22.50;51.50
41644;DHT22;44236;48.098;11.582;2023-07-08T07:29:45;22.50;51.40
41644;DHT22;44236;48.098;11.582;2023-07-08T07:32:12;22.50;51.30
41644;DHT22;44236;48.098;11.582;2023-07-08T07:34:38;22.50;51.50
41644;DHT22;44236;48.098;11.582;2023-07-08T07:37:14;22.50;51.00
41644;DHT22;44236;48.098;11.582;2023-07-08T07:39:41;22.60;51.50
41644;DHT22;44236;48.098;11.582;2023-07-08T07:42:07;22.60;51.30
41644;DHT22;44236;48.098;11.582;2023-07-08T07:44:33;22.50;51.50
41644;DHT22;44236;48.098;11.582;2023-07-08T07:46:58;22.60;50.90
41644;DHT22;44236;48.098;11.582;2023-07-08T07:49:24;22.60;51.40
41644;DHT22;44236;48.098;11.582;2023-07-08T07:51:49;22.60;51.60
41644;DHT22;44236;48.098;11.582;2023-07-08T07:54:15;22.70;51.00
41644;DHT22;44236;48.098;11.582;2023-07-08T07:56:41;22.70;51.50
41644;DHT22;44236;48.098;11.582;2023-07-08T07:59:07;22.70;50.50
41644;DHT22;44236;48.098;11.582;2023-07-08T08:01:32;22.70;50.40
41644;DHT22;44236;48.098;11.582;2023-07-08T08:03:58;22.80;50.90
41644;DHT22;44236;48.098;11.582;2023-07-08T08:06:23;22.80;51.10
41644;DHT22;44236;48.098;11.582;2023-07-08T08:08:49;22.80;51.70
41644;DHT22;44236;48.098;11.582;2023-07-08T08:11:16;22.90;51.10
41644;DHT22;44236;48.098;11.582;2023-07-08T08:13:42;22.90;51.30
41644;DHT22;44236;48.098;11.582;2023-07-08T08:16:08;22.90;50.60
41644;DHT22;44236;48.098;11.582;2023-07-08T08:18:33;22.90;50.50
41644;DHT22;44236;48.098;11.582;2023-07-08T08:20:59;22.90;51.10
41644;DHT22;44236;48.098;11.582;2023-07-08T08:23:25;23.00;51.30
41644;DHT22;44236;48.098;11.582;2023-07-08T08:25:51;22.90;50.60
41644;DHT22;44236;48.098;11.582;2023-07-08T08:28:18;23.00;50.90
41644;DHT22;44236;48.098;11.582;2023-07-08T08:30:50;23.00;51.20
41644;DHT22;44236;48.098;11.582;2023-07-08T08:33:16;23.00;51.50
41644;DHT22;44236;48.098;11.582;2023-07-08T08:35:42;23.00;51.00
41644;DHT22;44236;48.098;11.582;2023-07-08T08:38:08;23.00;51.00
41644;DHT22;44236;48.098;11.582;2023-07-08T08:40:34;23.00;51.10
41644;DHT22;44236;48.098;11.582;2023-07-08T08:43:03;23.00;51.00
41644;DHT22;44236;48.098;11.582;2023-07-08T08:45:39;23.00;51.10
41644;DHT22;44236;48.098;11.582;2023-07-08T08:48:10;23.10;51.00
41644;DHT22;44236;48.098;11.582;2023-07-08T08:50:48;23.10;50.90
41644;DHT22;44236;48.098;11.582;2023-07-08T08:53:17;23.10;50.60
41644;DHT22;44236;48.098;11.582;2023-07-08T08:55:43;23.10;51.00
41644;DHT22;44236;48.098;11.582;2023-07-08T08:58:25;23.10;51.10
41644;DHT22;44236;48.098;11.582;2023-07-08T09:01:06;23.10;50.90
41644;DHT22;44236;48.098;11.582;2023-07-08T09:03:37;23.10;51.10
41644;DHT22;44236;48.098;11.582;2023-07-08T09:06:12;23.20;51.00
41644;DHT22;44236;48.098;11.582;2023-07-08T09:08:39;23.20;50.90
41644;DHT22;44236;48.098;11.582;2023-07-08T09:13:52;23.20;51.10
41644;DHT22;44236;48.098;11.582;2023-07-08T09:21:41;23.20;51.50
41644;DHT22;44236;48.098;11.582;2023-07-08T09:24:16;23.20;53.30
41644;DHT22;44236;48.098;11.582;2023-07-08T09:26:44;23.30;52.50
41644;DHT22;44236;48.098;11.582;2023-07-08T09:29:10;23.30;52.00
41644;DHT22;44236;48.098;11.582;2023-07-08T09:31:39;23.30;51.70
41644;DHT22;44236;48.098;11.582;2023-07-08T09:34:10;23.30;51.50
41644;DHT22;44236;48.098;11.582;2023-07-08T09:36:41;23.30;51.60
41644;DHT22;44236;48.098;11.582;2023-07-08T09:39:12;23.30;51.50
41644;DHT22;44236;48.098;11.582;2023-07-08T09:41:39;23.30;51.50
41644;DHT22;44236;48.098;11.582;2023-07-08T09:46:37;23.30;51.50
41644;DHT22;44236;48.098;11.582;2023-07-08T09:51:47;23.30;51.50
41644;DHT22;44236;48.098;11.582;2023-07-08T09:54:19;23.30;51.40
41644;DHT22;44236;48.098;11.582;2023-07-08T09:57:16;23.30;51.40
41644;DHT22;44236;48.098;11.582;2023-07-08T09:59:46;23.30;51.30
41644;DHT22;44236;48.098;11.582;2023-07-08T10:02:38;23.30;51.30
41644;DHT22;44236;48.098;11.582;2023-07-08T10:07:57;23.30;51.30
41644;DHT22;44236;48.098;11.582;2023-07-08T10:10:43;23.30;51.30
41644;DHT22;44236;48.098;11.582;2023-07-08T10:15:49;23.40;51.40
41644;DHT22;44236;48.098;11.582;2023-07-08T10:18:25;23.30;51.30
41644;DHT22;44236;48.098;11.582;2023-07-08T10:24:01;23.40;51.40
41644;DHT22;44236;48.098;11.582;2023-07-08T10:26:33;23.40;51.40
41644;DHT22;44236;48.098;11.582;2023-07-08T10:32:08;23.40;51.40
41644;DHT22;44236;48.098;11.582;2023-07-08T10:37:47;23.40;51.40
41644;DHT22;44236;48.098;11.582;2023-07-08T10:45:59;23.40;51.40
41644;DHT22;44236;48.098;11.582;2023-07-08T10:56:45;23.40;51.40
41644;DHT22;44236;48.098;11.582;2023-07-08T10:59:49;23.40;51.40
41644;DHT22;44236;48.098;11.582;2023-07-08T11:05:47;23.40;51.40
41644;DHT22;44236;48.098;11.582;2023-07-08T11:08:32;23.50;51.40
41644;DHT22;44236;48.098;11.582;2023-07-08T11:11:03;23.50;51.40
41644;DHT22;44236;48.098;11.582;2023-07-08T11:13:31;23.50;51.50
41644;DHT22;44236;48.098;11.582;2023-07-08T11:16:03;23.50;51.40
41644;DHT22;44236;48.098;11.582;2023-07-08T11:18:54;23.50;51.40
41644;DHT22;44236;48.098;11.582;2023-07-08T11:21:22;23.50;51.40
41644;DHT22;44236;48.098;11.582;2023-07-08T11:23:50;23.50;51.40
41644;DHT22;44236;48.098;11.582;2023-07-08T11:28:58;23.50;51.40
41644;DHT22;44236;48.098;11.582;2023-07-08T11:31:27;23.50;51.40
41644;DHT22;44236;48.098;11.582;2023-07-08T11:33:55;23.50;51.50
41644;DHT22;44236;48.098;11.582;2023-07-08T11:36:23;23.50;51.40
41644;DHT22;44236;48.098;11.582;2023-07-08T11:38:52;23.50;51.40
41644;DHT22;44236;48.098;11.582;2023-07-08T11:41:20;23.60;51.50
41644;DHT22;44236;48.098;11.582;2023-07-08T11:43:57;23.60;51.50
41644;DHT22;44236;48.098;11.582;2023-07-08T11:46:27;23.60;51.40
41644;DHT22;44236;48.098;11.582;2023-07-08T11:49:05;23.60;51.50
41644;DHT22;44236;48.098;11.582;2023-07-08T11:51:39;23.60;51.40
41644;DHT22;44236;48.098;11.582;2023-07-08T11:54:27;23.60;51.50
41644;DHT22;44236;48.098;11.582;2023-07-08T11:57:01;23.60;51.50
41644;DHT22;44236;48.098;11.582;2023-07-08T11:59:37;23.60;51.50
41644;DHT22;44236;48.098;11.582;2023-07-08T12:02:17;23.60;51.50
41644;DHT22;44236;48.098;11.582;2023-07-08T12:05:03;23.60;51.90
41644;DHT22;44236;48.098;11.582;2023-07-08T12:07:47;23.60;51.50
41644;DHT22;44236;48.098;11.582;2023-07-08T12:10:31;23.60;51.50
41644;DHT22;44236;48.098;11.582;2023-07-08T12:12:58;23.60;51.50
41644;DHT22;44236;48.098;11.582;2023-07-08T12:15:25;23.70;51.60
41644;DHT22;44236;48.098;11.582;2023-07-08T12:17:56;23.70;51.50
41644;DHT22;44236;48.098;11.582;2023-07-08T12:20:39;23.70;51.50
41644;DHT22;44236;48.098;11.582;2023-07-08T12:23:12;23.70;51.50
41644;DHT22;44236;48.098;11.582;2023-07-08T12:25:38;23.70;52.00
41644;DHT22;44236;48.098;11.582;2023-07-08T12:28:04;23.70;51.50
41644;DHT22;44236;48.098;11.582;2023-07-08T12:30:31;23.70;51.50
41644;DHT22;44236;48.098;11.582;2023-07-08T12:32:59;23.70;51.50
41644;DHT22;44236;48.098;11.582;2023-07-08T12:35:33;23.70;51.50
41644;DHT22;44236;48.098;11.582;2023-07-08T12:38:26;23.70;51.50
41644;DHT22;44236;48.098;11.582;2023-07-08T12:40:51;23.70;51.50
41644;DHT22;44236;48.098;11.582;2023-07-08T12:43:16;23.70;51.60
41644;DHT22;44236;48.098;11.582;2023-07-08T12:45:43;23.70;51.60
41644;DHT22;44236;48.098;11.582;2023-07-08T12:48:09;23.70;51.60
41644;DHT22;44236;48.098;11.582;2023-07-08T12:50:35;23.70;51.60
41644;DHT22;44236;48.098;11.582;2023-07-08T12:53:03;23.70;51.60
41644;DHT22;44236;48.098;11.582;2023-07-08T12:55:36;23.70;51.60
41644;DHT22;44236;48.098;11.582;2023-07-08T12:58:02;23.80;51.60
41644;DHT22;44236;48.098;11.582;2023-07-08T13:00:31;23.80;51.60
41644;DHT22;44236;48.098;11.582;2023-07-08T13:03:01;23.80;51.60
41644;DHT22;44236;48.098;11.582;2023-07-08T13:05:29;23.80;51.60
41644;DHT22;44236;48.098;11.582;2023-07-08T13:07:55;23.80;51.60
41644;DHT22;44236;48.098;11.582;2023-07-08T13:10:25;23.80;51.60
41644;DHT22;44236;48.098;11.582;2023-07-08T13:12:55;23.80;51.60
41644;DHT22;44236;48.098;11.582;2023-07-08T13:15:31;23.80;51.60
41644;DHT22;44236;48.098;11.582;2023-07-08T13:17:59;23.80;51.50
41644;DHT22;44236;48.098;11.582;2023-07-08T13:20:25;23.80;51.50
41644;DHT22;44236;48.098;11.582;2023-07-08T13:22:57;23.90;51.60
41644;DHT22;44236;48.098;11.582;2023-07-08T13:25:31;23.90;51.60
41644;DHT22;44236;48.098;11.582;2023-07-08T13:31:13;23.90;51.60
41644;DHT22;44236;48.098;11.582;2023-07-08T13:33:45;23.90;51.60
41644;DHT22;44236;48.098;11.582;2023-07-08T13:36:13;23.90;51.50
41644;DHT22;44236;48.098;11.582;2023-07-08T13:38:40;23.90;51.60
41644;DHT22;44236;48.098;11.582;2023-07-08T13:41:07;23.90;51.60
41644;DHT22;44236;48.098;11.582;2023-07-08T13:43:37;23.90;51.50
41644;DHT22;44236;48.098;11.582;2023-07-08T13:46:03;23.90;51.60
41644;DHT22;44236;48.098;11.582;2023-07-08T13:51:01;23.90;51.50
41644;DHT22;44236;48.098;11.582;2023-07-08T13:53:40;23.90;51.60
41644;DHT22;44236;48.098;11.582;2023-07-08T13:56:30;23.90;51.50
41644;DHT22;44236;48.098;11.582;2023-07-08T13:59:09;23.90;51.50
41644;DHT22;44236;48.098;11.582;2023-07-08T14:01:38;24.00;51.50
41644;DHT22;44236;48.098;11.582;2023-07-08T14:04:04;24.00;51.60
41644;DHT22;44236;48.098;11.582;2023-07-08T14:06:33;24.00;51.60
41644;DHT22;44236;48.098;11.582;2023-07-08T14:11:44;23.90;51.50
41644;DHT22;44236;48.098;11.582;2023-07-08T14:14:11;24.00;51.50
41644;DHT22;44236;48.098;11.582;2023-07-08T14:16:39;24.00;51.60
41644;DHT22;44236;48.098;11.582;2023-07-08T14:19:17;24.00;51.50
41644;DHT22;44236;48.098;11.582;2023-07-08T14:21:45;24.00;51.50
41644;DHT22;44236;48.098;11.582;2023-07-08T14:24:14;24.00;51.50
41644;DHT22;44236;48.098;11.582;2023-07-08T14:26:42;24.00;51.50
41644;DHT22;44236;48.098;11.582;2023-07-08T14:29:08;24.00;51.60
41644;DHT22;44236;48.098;11.582;2023-07-08T14:31:33;24.00;51.60
41644;DHT22;44236;48.098;11.582;2023-07-08T14:34:04;24.00;51.50
41644;DHT22;44236;48.098;11.582;2023-07-08T14:36:31;24.00;51.50
41644;DHT22;44236;48.098;11.582;2023-07-08T14:38:57;24.10;51.60
41644;DHT22;44236;48.098;11.582;2023-07-08T14:41:23;24.00;51.50
41644;DHT22;44236;48.098;11.582;2023-07-08T14:43:49;24.10;51.50
41644;DHT22;44236;48.098;11.582;2023-07-08T14:46:14;24.00;51.60
41644;DHT22;44236;48.098;11.582;2023-07-08T14:48:42;24.10;51.50
41644;DHT22;44236;48.098;11.582;2023-07-08T14:51:08;24.00;51.50
41644;DHT22;44236;48.098;11.582;2023-07-08T14:53:33;24.10;51.60
41644;DHT22;44236;48.098;11.582;2023-07-08T14:56:02;24.10;51.60
41644;DHT22;44236;48.098;11.582;2023-07-08T14:58:32;24.10;51.50
41644;DHT22;44236;48.098;11.582;2023-07-08T15:01:00;24.10;51.60
41644;DHT22;44236;48.098;11.582;2023-07-08T15:03:30;24.10;51.50
41644;DHT22;44236;48.098;11.582;2023-07-08T15:05:56;24.10;51.60
41644;DHT22;44236;48.098;11.582;2023-07-08T15:08:22;24.10;51.60
41644;DHT22;44236;48.098;11.582;2023-07-08T15:10:50;24.10;51.60
41644;DHT22;44236;48.098;11.582;2023-07-08T15:13:17;24.10;51.60
41644;DHT22;44236;48.098;11.582;2023-07-08T15:15:44;24.10;51.60
41644;DHT22;44236;48.098;11.582;2023-07-08T15:18:14;24.10;51.60
41644;DHT22;44236;48.098;11.582;2023-07-08T15:20:41;24.10;51.50
41644;DHT22;44236;48.098;11.582;2023-07-08T15:23:07;24.10;51.60
41644;DHT22;44236;48.098;11.582;2023-07-08T15:25:33;24.20;51.60
41644;DHT22;44236;48.098;11.582;2023-07-08T15:28:01;24.20;51.60
41644;DHT22;44236;48.098;11.582;2023-07-08T15:30:28;24.20;51.60
41644;DHT22;44236;48.098;11.582;2023-07-08T15:32:55;24.10;51.60
41644;DHT22;44236;48.098;11.582;2023-07-08T15:35:23;24.20;51.60
41644;DHT22;44236;48.098;11.582;2023-07-08T15:37:56;24.20;51.60
41644;DHT22;44236;48.098;11.582;2023-07-08T15:40:23;24.20;51.60
41644;DHT22;44236;48.098;11.582;2023-07-08T15:42:52;24.20;51.60
41644;DHT22;44236;48.098;11.582;2023-07-08T15:45:38;24.20;51.60
41644;DHT22;44236;48.098;11.582;2023-07-08T15:48:11;24.20;51.60
41644;DHT22;44236;48.098;11.582;2023-07-08T15:50:37;24.20;51.60
41644;DHT22;44236;48.098;11.582;2023-07-08T15:53:02;24.20;51.60
41644;DHT22;44236;48.098;11.582;2023-07-08T15:55:34;24.20;51.60
41644;DHT22;44236;48.098;11.582;2023-07-08T15:58:23;24.20;51.60
41644;DHT22;44236;48.098;11.582;2023-07-08T16:00:49;24.20;51.60
41644;DHT22;44236;48.098;11.582;2023-07-08T16:03:36;24.20;51.60
41644;DHT22;44236;48.098;11.582;2023-07-08T16:06:02;24.20;51.60
41644;DHT22;44236;48.098;11.582;2023-07-08T16:08:28;24.20;51.60
41644;DHT22;44236;48.098;11.582;2023-07-08T16:10:59;24.30;51.60
41644;DHT22;44236;48.098;11.582;2023-07-08T16:13:32;24.20;51.60
41644;DHT22;44236;48.098;11.582;2023-07-08T16:15:58;24.30;51.60
41644;DHT22;44236;48.098;11.582;2023-07-08T16:18:24;24.30;51.60
41644;DHT22;44236;48.098;11.582;2023-07-08T16:20:50;24.30;51.60
41644;DHT22;44236;48.098;11.582;2023-07-08T16:23:16;24.20;51.60
41644;DHT22;44236;48.098;11.582;2023-07-08T16:25:46;24.20;52.10
41644;DHT22;44236;48.098;11.582;2023-07-08T16:28:38;24.30;51.60
41644;DHT22;44236;48.098;11.582;2023-07-08T16:31:19;24.30;51.60
41644;DHT22;44236;48.098;11.582;2023-07-08T16:33:47;24.30;51.60
41644;DHT22;44236;48.098;11.582;2023-07-08T16:36:14;24.30;51.60
41644;DHT22;44236;48.098;11.582;2023-07-08T16:38:40;24.30;51.60
41644;DHT22;44236;48.098;11.582;2023-07-08T16:41:17;24.30;51.60
41644;DHT22;44236;48.098;11.582;2023-07-08T16:43:43;24.30;51.60
41644;DHT22;44236;48.098;11.582;2023-07-08T16:46:14;24.30;51.60
41644;DHT22;44236;48.098;11.582;2023-07-08T16:48:40;24.30;51.60
41644;DHT22;44236;48.098;11.582;2023-07-08T16:51:17;24.30;51.60
41644;DHT22;44236;48.098;11.582;2023-07-08T16:53:43;24.30;51.60
41644;DHT22;44236;48.098;11.582;2023-07-08T16:56:17;24.30;51.60
41644;DHT22;44236;48.098;11.582;2023-07-08T16:58:43;24.30;51.50
41644;DHT22;44236;48.098;11.582;2023-07-08T17:01:23;24.30;51.50
41644;DHT22;44236;48.098;11.582;2023-07-08T17:03:50;24.30;51.40
41644;DHT22;44236;48.098;11.582;2023-07-08T17:06:17;24.30;51.40
41644;DHT22;44236;48.098;11.582;2023-07-08T17:08:43;24.30;51.40
41644;DHT22;44236;48.098;11.582;2023-07-08T17:11:08;24.30;51.40
41644;DHT22;44236;48.098;11.582;2023-07-08T17:13:34;24.30;51.40
41644;DHT22;44236;48.098;11.582;2023-07-08T17:16:00;24.30;51.30
41644;DHT22;44236;48.098;11.582;2023-07-08T17:18:26;24.40;51.40
41644;DHT22;44236;48.098;11.582;2023-07-08T17:21:00;24.30;51.30
41644;DHT22;44236;48.098;11.582;2023-07-08T17:23:26;24.40;51.40
41644;DHT22;44236;48.098;11.582;2023-07-08T17:25:52;24.30;51.30
41644;DHT22;44236;48.098;11.582;2023-07-08T17:28:17;24.40;51.40
41644;DHT22;44236;48.098;11.582;2023-07-08T17:30:48;24.40;51.30
41644;DHT22;44236;48.098;11.582;2023-07-08T17:33:17;24.40;51.30
41644;DHT22;44236;48.098;11.582;2023-07-08T17:35:43;24.40;51.30
41644;DHT22;44236;48.098;11.582;2023-07-08T17:38:13;24.40;51.30
41644;DHT22;44236;48.098;11.582;2023-07-08T17:40:39;24.40;51.30
41644;DHT22;44236;48.098;11.582;2023-07-08T17:43:04;24.40;51.30
41644;DHT22;44236;48.098;11.582;2023-07-08T17:45:48;24.40;51.20
41644;DHT22;44236;48.098;11.582;2023-07-08T17:48:24;24.40;51.20
41644;DHT22;44236;48.098;11.582;2023-07-08T17:50:51;24.40;51.20
41644;DHT22;44236;48.098;11.582;2023-07-08T17:53:16;24.40;51.20
41644;DHT22;44236;48.098;11.582;2023-07-08T17:55:42;24.40;51.20
41644;DHT22;44236;48.098;11.582;2023-07-08T17:58:13;24.40;51.70
41644;DHT22;44236;48.098;11.582;2023-07-08T18:00:39;24.40;51.20
41644;DHT22;44236;48.098;11.582;2023-07-08T18:03:05;24.40;51.20
41644;DHT22;44236;48.098;11.582;2023-07-08T18:05:34;24.40;51.20
41644;DHT22;44236;48.098;11.582;2023-07-08T18:07:59;24.40;51.20
41644;DHT22;44236;48.098;11.582;2023-07-08T18:10:27;24.40;51.20
41644;DHT22;44236;48.098;11.582;2023-07-08T18:12:54;24.40;51.20
41644;DHT22;44236;48.098;11.582;2023-07-08T18:15:28;24.40;51.10
41644;DHT22;44236;48.098;11.582;2023-07-08T18:17:58;24.40;51.10
41644;DHT22;44236;48.098;11.582;2023-07-08T18:20:30;24.40;51.10
41644;DHT22;44236;48.098;11.582;2023-07-08T18:22:57;24.40;51.10
41644;DHT22;44236;48.098;11.582;2023-07-08T18:25:24;24.40;51.10
41644;DHT22;44236;48.098;11.582;2023-07-08T18:27:51;24.40;51.10
41644;DHT22;44236;48.098;11.582;2023-07-08T18:30:18;24.40;51.10
41644;DHT22;44236;48.098;11.582;2023-07-08T18:32:49;24.40;51.10
41644;DHT22;44236;48.098;11.582;2023-07-08T18:35:16;24.40;51.00
41644;DHT22;44236;48.098;11.582;2023-07-08T18:37:43;24.40;51.10
41644;DHT22;44236;48.098;11.582;2023-07-08T18:40:15;24.50;51.10
41644;DHT22;44236;48.098;11.582;2023-07-08T18:42:43;24.40;51.00
41644;DHT22;44236;48.098;11.582;2023-07-08T18:45:18;24.40;51.00
41644;DHT22;44236;48.098;11.582;2023-07-08T18:47:44;24.40;51.00
41644;DHT22;44236;48.098;11.582;2023-07-08T18:50:10;24.50;51.10
41644;DHT22;44236;48.098;11.582;2023-07-08T18:52:36;24.40;51.00
41644;DHT22;44236;48.098;11.582;2023-07-08T18:55:02;24.50;51.10
41644;DHT22;44236;48.098;11.582;2023-07-08T18:57:28;24.40;51.00
41644;DHT22;44236;48.098;11.582;2023-07-08T19:00:17;24.40;51.00
41644;DHT22;44236;48.098;11.582;2023-07-08T19:02:53;24.50;51.00
41644;DHT22;44236;48.098;11.582;2023-07-08T19:05:21;24.50;51.10
41644;DHT22;44236;48.098;11.582;2023-07-08T19:07:47;24.50;51.10
41644;DHT22;44236;48.098;11.582;2023-07-08T19:10:14;24.50;51.10
41644;DHT22;44236;48.098;11.582;2023-07-08T19:12:49;24.50;51.10
41644;DHT22;44236;48.098;11.582;2023-07-08T19:15:27;24.50;51.10
41644;DHT22;44236;48.098;11.582;2023-07-08T19:17:54;24.50;51.10
41644;DHT22;44236;48.098;11.582;2023-07-08T19:20:24;24.50;51.10
41644;DHT22;44236;48.098;11.582;2023-07-08T19:22:51;24.50;51.10
41644;DHT22;44236;48.098;11.582;2023-07-08T19:25:20;24.50;51.00
41644;DHT22;44236;48.098;11.582;2023-07-08T19:27:46;24.50;51.10
41644;DHT22;44236;48.098;11.582;2023-07-08T19:30:12;24.50;51.00
41644;DHT22;44236;48.098;11.582;2023-07-08T19:32:41;24.50;51.00
41644;DHT22;44236;48.098;11.582;2023-07-08T19:35:13;24.50;51.00
41644;DHT22;44236;48.098;11.582;2023-07-08T19:37:39;24.50;51.50
41644;DHT22;44236;48.098;11.582;2023-07-08T19:40:05;24.50;51.00
41644;DHT22;44236;48.098;11.582;2023-07-08T19:42:31;24.50;51.10
41644;DHT22;44236;48.098;11.582;2023-07-08T19:44:57;24.50;51.10
41644;DHT22;44236;48.098;11.582;2023-07-08T19:47:22;24.50;51.00
41644;DHT22;44236;48.098;11.582;2023-07-08T19:49:48;24.50;51.00
41644;DHT22;44236;48.098;11.582;2023-07-08T19:52:34;24.50;51.00
41644;DHT22;44236;48.098;11.582;2023-07-08T19:54:59;24.50;51.00
41644;DHT22;44236;48.098;11.582;2023-07-08T19:57:25;24.50;51.00
41644;DHT22;44236;48.098;11.582;2023-07-08T19:59:50;24.50;51.00
41644;DHT22;44236;48.098;11.582;2023-07-08T20:02:17;24.50;51.00
41644;DHT22;44236;48.098;11.582;2023-07-08T20:04:43;24.50;51.00
41644;DHT22;44236;48.098;11.582;2023-07-08T20:07:13;24.50;51.50
41644;DHT22;44236;48.098;11.582;2023-07-08T20:09:40;24.50;51.00
41644;DHT22;44236;48.098;11.582;2023-07-08T20:12:14;24.50;51.00
41644;DHT22;44236;48.098;11.582;2023-07-08T20:14:40;24.60;51.00
41644;DHT22;44236;48.098;11.582;2023-07-08T20:17:12;24.50;51.00
41644;DHT22;44236;48.098;11.582;2023-07-08T20:19:39;24.60;51.00
41644;DHT22;44236;48.098;11.582;2023-07-08T20:22:04;24.50;51.10
41644;DHT22;44236;48.098;11.582;2023-07-08T20:24:30;24.50;51.00
41644;DHT22;44236;48.098;11.582;2023-07-08T20:26:56;24.50;51.00
41644;DHT22;44236;48.098;11.582;2023-07-08T20:29:21;24.60;51.10
41644;DHT22;44236;48.098;11.582;2023-07-08T20:31:47;24.60;51.10
41644;DHT22;44236;48.098;11.582;2023-07-08T20:34:13;24.60;51.10
41644;DHT22;44236;48.098;11.582;2023-07-08T20:36:42;24.60;51.10
41644;DHT22;44236;48.098;11.582;2023-07-08T20:39:11;24.60;51.10
41644;DHT22;44236;48.098;11.582;2023-07-08T20:41:36;24.60;51.10
41644;DHT22;44236;48.098;11.582;2023-07-08T20:44:02;24.60;51.10
41644;DHT22;44236;48.098;11.582;2023-07-08T20:46:31;24.50;51.00
41644;DHT22;44236;48.098;11.582;2023-07-08T20:49:13;24.60;51.00
41644;DHT22;44236;48.098;11.582;2023-07-08T20:51:38;24.50;51.00
41644;DHT22;44236;48.098;11.582;2023-07-08T20:54:07;24.60;51.00
41644;DHT22;44236;48.098;11.582;2023-07-08T20:56:34;24.60;51.00
41644;DHT22;44236;48.098;11.582;2023-07-08T20:59:00;24.50;51.00
41644;DHT22;44236;48.098;11.582;2023-07-08T21:01:25;24.50;51.10
41644;DHT22;44236;48.098;11.582;2023-07-08T21:03:55;24.60;51.00
41644;DHT22;44236;48.098;11.582;2023-07-08T21:06:27;24.50;50.90
41644;DHT22;44236;48.098;11.582;2023-07-08T21:08:57;24.60;51.00
41644;DHT22;44236;48.098;11.582;2023-07-08T21:11:22;24.50;51.00
41644;DHT22;44236;48.098;11.582;2023-07-08T21:13:48;24.60;51.00
41644;DHT22;44236;48.098;11.582;2023-07-08T21:16:25;24.60;51.00
41644;DHT22;44236;48.098;11.582;2023-07-08T21:18:52;24.60;50.90
41644;DHT22;44236;48.098;11.582;2023-07-08T21:21:19;24.60;50.90
41644;DHT22;44236;48.098;11.582;2023-07-08T21:23:45;24.50;50.80
41644;DHT22;44236;48.098;11.582;2023-07-08T21:28:44;23.90;51.30
41644;DHT22;44236;48.098;11.582;2023-07-08T21:31:14;23.70;51.80
41644;DHT22;44236;48.098;11.582;2023-07-08T21:33:40;23.50;52.50
41644;DHT22;44236;48.098;11.582;2023-07-08T21:38:42;23.60;52.70
41644;DHT22;44236;48.098;11.582;2023-07-08T21:41:08;23.60;53.00
41644;DHT22;44236;48.098;11.582;2023-07-08T21:43:37;23.50;53.30
41644;DHT22;44236;48.098;11.582;2023-07-08T21:46:02;23.50;53.80
41644;DHT22;44236;48.098;11.582;2023-07-08T21:48:28;23.50;53.80
41644;DHT22;44236;48.098;11.582;2023-07-08T21:50:55;23.40;53.50
41644;DHT22;44236;48.098;11.582;2023-07-08T21:53:41;23.40;53.40
41644;DHT22;44236;48.098;11.582;2023-07-08T21:56:08;23.40;53.90
41644;DHT22;44236;48.098;11.582;2023-07-08T21:58:34;23.40;54.10
41644;DHT22;44236;48.098;11.582;2023-07-08T22:01:00;23.30;54.70